createdAt,value
2023-02-27T00:00:32.346Z,21.87
2023-02-27T00:01:35.419Z,20.55
2023-02-27T00:02:37.929Z,21.12
2023-02-27T00:03:40.303Z,19.95
2023-02-27T00:04:42.860Z,19.82
2023-02-27T00:05:45.181Z,19.57
2023-02-27T00:06:47.576Z,19.45
2023-02-27T00:07:50.882Z,18.72
2023-02-27T00:08:53.292Z,18.22
2023-02-27T00:10:36.770Z,19.62
2023-02-27T00:11:39.153Z,17.65
2023-02-27T00:12:42.237Z,18.32
2023-02-27T00:13:44.693Z,18.30
2023-02-27T00:14:47.064Z,19.52
2023-02-27T00:15:52.701Z,18.37
2023-02-27T00:16:55.044Z,19.67
2023-02-27T00:17:57.500Z,20.13
2023-02-27T00:19:01.400Z,18.68
2023-02-27T00:20:05.994Z,18.22
2023-02-27T00:21:08.386Z,18.07
2023-02-27T00:22:10.754Z,17.90
2023-02-27T00:23:13.134Z,18.03
2023-02-27T00:24:15.530Z,17.70
2023-02-27T00:25:18.273Z,17.45
2023-02-27T00:26:20.628Z,17.22
2023-02-27T00:27:23.158Z,16.77
2023-02-27T00:28:25.542Z,17.18
2023-02-27T00:29:27.978Z,17.13
2023-02-27T00:30:30.445Z,17.52
2023-02-27T00:31:33.293Z,16.38
2023-02-27T00:32:36.842Z,16.43
2023-02-27T00:33:39.373Z,16.82
2023-02-27T00:34:41.995Z,17.27
2023-02-27T00:35:44.349Z,16.78
2023-02-27T00:36:47.325Z,16.95
2023-02-27T00:37:49.976Z,16.05
2023-02-27T00:38:52.430Z,17.40
2023-02-27T00:39:54.815Z,17.80
2023-02-27T00:40:57.170Z,17.00
2023-02-27T00:41:59.581Z,17.53
2023-02-27T00:43:03.057Z,16.63
2023-02-27T00:44:05.676Z,16.52
2023-02-27T00:45:08.787Z,16.43
2023-02-27T00:46:11.171Z,16.03
2023-02-27T00:47:13.592Z,16.50
2023-02-27T00:48:16.387Z,15.87
2023-02-27T00:49:19.810Z,15.55
2023-02-27T00:50:22.191Z,15.27
2023-02-27T00:51:24.976Z,15.65
2023-02-27T00:52:28.054Z,15.77
2023-02-27T00:53:30.551Z,16.28
2023-02-27T00:54:32.927Z,15.87
2023-02-27T00:55:35.290Z,15.62
2023-02-27T00:56:37.606Z,15.60
2023-02-27T00:57:40.613Z,15.77
2023-02-27T00:58:43.015Z,16.72
2023-02-27T00:59:45.487Z,16.23
2023-02-27T01:00:47.986Z,16.63
2023-02-27T01:01:50.382Z,16.15
2023-02-27T01:02:52.872Z,16.05
2023-02-27T01:03:55.385Z,15.97
2023-02-27T01:04:57.842Z,15.33
2023-02-27T01:06:00.200Z,15.78
2023-02-27T01:07:02.629Z,16.38
2023-02-27T01:08:05.200Z,16.55
2023-02-27T01:09:07.602Z,16.32
2023-02-27T01:10:11.284Z,14.55
2023-02-27T01:11:13.767Z,14.20
2023-02-27T01:12:16.112Z,14.75
2023-02-27T01:13:18.444Z,14.97
2023-02-27T01:14:20.821Z,14.03
2023-02-27T01:15:23.150Z,14.50
2023-02-27T01:16:25.602Z,14.02
2023-02-27T01:17:28.107Z,13.68
2023-02-27T01:18:30.534Z,13.92
2023-02-27T01:19:32.922Z,14.40
2023-02-27T01:20:35.290Z,13.40
2023-02-27T01:21:37.768Z,12.90
2023-02-27T01:22:40.274Z,13.50
2023-02-27T01:23:42.643Z,14.50
2023-02-27T01:24:45.006Z,14.23
2023-02-27T01:25:48.314Z,13.25
2023-02-27T01:26:52.644Z,13.33
2023-02-27T01:27:55.177Z,13.22
2023-02-27T01:28:57.572Z,12.70
2023-02-27T01:29:59.999Z,13.08
2023-02-27T01:31:02.522Z,12.83
2023-02-27T01:32:05.082Z,13.80
2023-02-27T01:33:08.910Z,13.42
2023-02-27T01:34:11.406Z,12.62
2023-02-27T01:35:13.868Z,11.40
2023-02-27T01:36:16.292Z,12.20
2023-02-27T01:37:18.801Z,12.68
2023-02-27T01:38:21.191Z,12.13
2023-02-27T01:39:23.624Z,12.67
2023-02-27T01:40:26.029Z,12.47
2023-02-27T01:41:29.136Z,12.57
2023-02-27T01:42:31.563Z,12.85
2023-02-27T01:43:34.870Z,12.32
2023-02-27T01:45:10.658Z,11.22
2023-02-27T01:46:13.206Z,11.70
2023-02-27T01:47:15.834Z,12.48
2023-02-27T01:48:29.594Z,12.93
2023-02-27T01:49:34.048Z,13.57
2023-02-27T01:50:39.971Z,12.25
2023-02-27T01:51:48.625Z,11.50
2023-02-27T01:52:57.846Z,11.57
2023-02-27T01:54:01.533Z,11.72
2023-02-27T01:55:08.388Z,11.73
2023-02-27T01:56:15.153Z,11.52
2023-02-27T01:57:17.502Z,11.83
2023-02-27T01:58:20.189Z,10.37
2023-02-27T01:59:23.304Z,10.68
2023-02-27T02:01:30.808Z,10.47
2023-02-27T02:02:37.991Z,10.00
2023-02-27T02:03:48.557Z,10.63
2023-02-27T02:04:51.489Z,10.38
2023-02-27T02:05:56.139Z,10.13
2023-02-27T02:07:07.354Z,10.62
2023-02-27T02:08:10.181Z,10.03
2023-02-27T02:09:14.639Z,10.07
2023-02-27T02:10:18.438Z,10.50
2023-02-27T02:11:21.190Z,10.50
2023-02-27T02:12:29.577Z,10.62
2023-02-27T02:13:32.349Z,11.30
2023-02-27T02:14:34.741Z,11.07
2023-02-27T02:15:42.072Z,11.58
2023-02-27T02:16:55.304Z,11.55
2023-02-27T02:18:07.576Z,11.28
2023-02-27T02:19:35.491Z,11.47
2023-02-27T02:20:52.864Z,10.13
2023-02-27T02:22:16.990Z,10.05
2023-02-27T02:23:38.122Z,13.18
2023-02-27T02:25:01.678Z,13.70
2023-02-27T02:26:18.590Z,10.73
2023-02-27T02:28:03.052Z,10.77
2023-02-27T02:29:41.111Z,9.88
2023-02-27T02:30:52.530Z,10.33
2023-02-27T02:32:19.310Z,10.23
2023-02-27T02:33:36.096Z,9.78
2023-02-27T02:34:50.544Z,9.07
2023-02-27T02:36:19.046Z,9.25
2023-02-27T02:37:39.397Z,9.18
2023-02-27T02:38:53.690Z,9.55
2023-02-27T02:40:30.196Z,9.72
2023-02-27T02:41:54.920Z,11.82
2023-02-27T02:43:06.896Z,15.63
2023-02-27T02:44:36.630Z,14.43
2023-02-27T02:45:45.717Z,12.37
2023-02-27T02:47:02.562Z,10.20
2023-02-27T02:48:20.852Z,9.43
2023-02-27T02:49:33.515Z,9.05
2023-02-27T02:50:41.700Z,9.03
2023-02-27T02:52:04.122Z,9.18
2023-02-27T02:53:26.774Z,9.45
2023-02-27T02:54:57.186Z,9.38
2023-02-27T02:56:06.624Z,10.12
2023-02-27T02:57:14.021Z,9.78
2023-02-27T02:58:37.551Z,8.58
2023-02-27T02:59:55.532Z,9.30
2023-02-27T03:01:15.342Z,8.95
2023-02-27T03:02:23.134Z,9.00
2023-02-27T03:03:30.065Z,8.45
2023-02-27T03:04:55.672Z,8.47
2023-02-27T03:06:33.921Z,8.18
2023-02-27T03:07:57.499Z,8.23
2023-02-27T03:09:27.620Z,8.32
2023-02-27T03:10:47.333Z,7.88
2023-02-27T03:11:52.525Z,8.37
2023-02-27T03:13:18.298Z,8.52
2023-02-27T03:14:35.714Z,9.52
2023-02-27T03:15:46.090Z,10.87
2023-02-27T03:16:53.398Z,10.53
2023-02-27T03:17:56.970Z,9.57
2023-02-27T03:19:03.970Z,9.90
2023-02-27T03:20:15.530Z,7.72
2023-02-27T03:21:28.413Z,8.28
2023-02-27T03:22:42.953Z,8.83
2023-02-27T03:23:47.822Z,9.42
2023-02-27T03:24:56.153Z,10.17
2023-02-27T03:26:00.153Z,10.62
2023-02-27T03:27:05.780Z,12.30
2023-02-27T03:28:11.621Z,12.33
2023-02-27T03:29:48.967Z,12.55
2023-02-27T03:31:10.187Z,14.32
2023-02-27T03:32:18.435Z,11.95
2023-02-27T03:33:25.824Z,11.98
2023-02-27T03:34:35.706Z,12.52
2023-02-27T03:35:53.977Z,11.90
2023-02-27T03:37:16.938Z,12.35
2023-02-27T03:38:22.135Z,12.38
2023-02-27T03:39:32.861Z,14.08
2023-02-27T03:40:53.007Z,12.50
2023-02-27T03:42:10.667Z,12.80
2023-02-27T03:43:29.405Z,11.50
2023-02-27T03:44:46.252Z,9.20
2023-02-27T03:46:00.644Z,9.72
2023-02-27T03:47:03.186Z,9.62
2023-02-27T03:48:06.981Z,8.48
2023-02-27T03:49:09.458Z,8.37
2023-02-27T03:50:12.394Z,8.35
2023-02-27T03:51:18.736Z,7.92
2023-02-27T03:52:22.721Z,7.57
2023-02-27T03:53:35.598Z,8.32
2023-02-27T03:54:46.230Z,7.73
2023-02-27T03:55:50.870Z,8.18
2023-02-27T03:57:05.289Z,7.43
2023-02-27T03:58:07.652Z,7.20
2023-02-27T03:59:10.549Z,6.85
2023-02-27T04:00:18.187Z,7.28
2023-02-27T04:01:20.881Z,7.77
2023-02-27T04:02:23.295Z,7.73
2023-02-27T04:03:26.358Z,7.67
2023-02-27T04:04:32.029Z,7.97
2023-02-27T04:05:34.384Z,7.47
2023-02-27T04:06:56.934Z,8.52
2023-02-27T04:08:18.111Z,8.60
2023-02-27T04:09:41.877Z,9.05
2023-02-27T04:10:56.364Z,8.73
2023-02-27T04:12:21.817Z,9.30
2023-02-27T04:13:37.845Z,8.95
2023-02-27T04:15:09.395Z,8.72
2023-02-27T04:17:05.218Z,9.22
2023-02-27T04:18:28.620Z,7.22
2023-02-27T04:19:34.173Z,7.32
2023-02-27T04:20:44.650Z,7.45
2023-02-27T04:22:14.220Z,7.80
2023-02-27T04:23:28.335Z,7.38
2023-02-27T04:25:02.760Z,7.38
2023-02-27T04:26:18.153Z,8.08
2023-02-27T04:27:36.052Z,9.17
2023-02-27T04:28:45.355Z,9.10
2023-02-27T04:29:58.082Z,9.90
2023-02-27T04:31:15.635Z,10.20
2023-02-27T04:32:59.216Z,10.22
2023-02-27T04:34:12.701Z,9.50
2023-02-27T04:35:42.157Z,8.93
2023-02-27T04:36:50.305Z,8.75
2023-02-27T04:38:02.226Z,9.07
2023-02-27T04:39:09.798Z,9.30
2023-02-27T04:40:27.434Z,10.33
2023-02-27T04:41:57.410Z,12.52
2023-02-27T04:43:01.949Z,13.95
2023-02-27T04:44:06.732Z,13.88
2023-02-27T04:45:15.202Z,13.12
2023-02-27T04:46:22.318Z,12.83
2023-02-27T04:47:27.439Z,11.12
2023-02-27T04:48:34.516Z,12.22
2023-02-27T04:49:44.594Z,15.95
2023-02-27T04:50:55.348Z,18.00
2023-02-27T04:52:18.294Z,15.50
2023-02-27T04:53:32.872Z,13.98
2023-02-27T04:54:48.427Z,14.40
2023-02-27T04:55:54.938Z,15.28
2023-02-27T04:57:03.321Z,13.53
2023-02-27T04:58:16.108Z,13.98
2023-02-27T04:59:25.012Z,25.27
2023-02-27T05:00:30.332Z,36.50
2023-02-27T05:01:47.472Z,40.38
2023-02-27T05:02:54.899Z,28.58
2023-02-27T05:04:00.398Z,25.68
2023-02-27T05:05:08.083Z,22.00
2023-02-27T05:06:11.516Z,18.23
2023-02-27T05:07:19.172Z,15.37
2023-02-27T05:08:30.586Z,12.52
2023-02-27T05:09:41.248Z,12.50
2023-02-27T05:10:49.444Z,12.80
2023-02-27T05:12:04.126Z,14.40
2023-02-27T05:13:17.065Z,13.77
2023-02-27T05:14:24.601Z,13.72
2023-02-27T05:15:34.469Z,12.75
2023-02-27T05:17:04.371Z,12.33
2023-02-27T05:18:09.693Z,11.85
2023-02-27T05:19:12.359Z,11.52
2023-02-27T05:20:16.342Z,11.37
2023-02-27T05:21:31.390Z,12.90
2023-02-27T05:22:48.461Z,21.10
2023-02-27T05:23:55.974Z,146.33
2023-02-27T05:25:36.566Z,234.95
2023-02-27T05:26:49.849Z,175.73
2023-02-27T05:27:59.394Z,121.33
2023-02-27T05:29:20.382Z,68.53
2023-02-27T05:30:38.526Z,53.90
2023-02-27T05:32:14.975Z,46.87
2023-02-27T05:33:36.866Z,41.95
2023-02-27T05:34:57.340Z,25.20
2023-02-27T05:36:11.808Z,17.75
2023-02-27T05:37:18.054Z,18.42
2023-02-27T05:38:30.109Z,17.57
2023-02-27T05:39:36.714Z,18.67
2023-02-27T05:40:47.654Z,22.23
2023-02-27T05:41:54.680Z,19.62
2023-02-27T05:43:23.132Z,16.82
2023-02-27T05:44:33.615Z,16.17
2023-02-27T05:45:39.456Z,15.45
2023-02-27T05:46:46.486Z,13.62
2023-02-27T05:47:57.674Z,12.85
2023-02-27T05:49:08.080Z,11.73
2023-02-27T05:50:16.255Z,10.85
2023-02-27T05:51:19.941Z,10.17
2023-02-27T05:52:25.420Z,12.40
2023-02-27T05:53:32.195Z,12.60
2023-02-27T05:54:48.073Z,16.30
2023-02-27T05:55:53.890Z,20.23
2023-02-27T05:56:58.564Z,21.78
2023-02-27T05:58:13.028Z,21.45
2023-02-27T05:59:25.200Z,21.42
2023-02-27T06:00:35.842Z,20.87
2023-02-27T06:01:38.349Z,21.18
2023-02-27T06:02:42.974Z,21.15
2023-02-27T06:03:45.427Z,22.38
2023-02-27T06:04:47.928Z,22.27
2023-02-27T06:05:55.038Z,21.87
2023-02-27T06:06:57.891Z,22.00
2023-02-27T06:08:00.894Z,21.83
2023-02-27T06:09:03.501Z,20.02
2023-02-27T06:10:06.270Z,17.72
2023-02-27T06:11:08.912Z,17.67
2023-02-27T06:12:11.313Z,17.47
2023-02-27T06:13:13.682Z,17.68
2023-02-27T06:14:16.006Z,17.50
2023-02-27T06:15:19.395Z,17.48
2023-02-27T06:16:21.771Z,16.47
2023-02-27T06:17:24.148Z,16.28
2023-02-27T06:18:26.549Z,15.68
2023-02-27T06:19:30.630Z,16.52
2023-02-27T06:20:33.881Z,15.43
2023-02-27T06:21:36.256Z,13.52
2023-02-27T06:22:38.757Z,14.77
2023-02-27T06:23:41.180Z,15.10
2023-02-27T06:24:43.563Z,14.05
2023-02-27T06:25:48.368Z,14.27
2023-02-27T06:26:50.757Z,14.10
2023-02-27T06:27:53.847Z,16.13
2023-02-27T06:28:56.449Z,17.15
2023-02-27T06:29:59.690Z,18.43
2023-02-27T06:31:03.973Z,21.97
2023-02-27T06:32:08.444Z,26.53
2023-02-27T06:33:15.049Z,27.35
2023-02-27T06:34:26.170Z,27.70
2023-02-27T06:35:34.241Z,35.93
2023-02-27T06:36:41.581Z,37.88
2023-02-27T06:37:48.888Z,43.85
2023-02-27T06:39:03.382Z,54.07
2023-02-27T06:40:12.811Z,44.92
2023-02-27T06:41:24.402Z,33.98
2023-02-27T06:42:31.274Z,32.30
2023-02-27T06:43:35.250Z,31.40
2023-02-27T06:44:38.436Z,31.50
2023-02-27T06:45:41.431Z,40.45
2023-02-27T06:46:50.064Z,45.13
2023-02-27T06:47:53.947Z,44.88
2023-02-27T06:49:02.056Z,36.88
2023-02-27T06:50:06.062Z,34.60
2023-02-27T06:51:10.937Z,31.00
2023-02-27T06:52:13.775Z,28.07
2023-02-27T06:53:17.688Z,26.17
2023-02-27T06:54:23.302Z,30.38
2023-02-27T06:55:33.639Z,24.45
2023-02-27T06:56:39.026Z,22.22
2023-02-27T06:57:46.002Z,24.80
2023-02-27T06:58:48.531Z,24.60
2023-02-27T06:59:51.401Z,17.97
2023-02-27T07:00:53.765Z,14.88
2023-02-27T07:01:56.440Z,13.67
2023-02-27T07:02:58.980Z,13.63
2023-02-27T07:04:01.381Z,13.83
2023-02-27T07:05:08.185Z,11.63
2023-02-27T07:06:11.805Z,12.20
2023-02-27T07:07:35.662Z,12.93
2023-02-27T07:08:37.286Z,12.70
2023-02-27T07:09:39.657Z,11.68
2023-02-27T07:10:44.129Z,12.42
2023-02-27T07:11:46.716Z,13.38
2023-02-27T07:12:49.286Z,11.45
2023-02-27T07:13:51.671Z,9.90
2023-02-27T07:14:54.112Z,9.92
2023-02-27T07:15:56.549Z,12.22
2023-02-27T07:17:03.984Z,9.83
2023-02-27T07:18:06.635Z,8.43
2023-02-27T07:19:09.141Z,8.35
2023-02-27T07:20:12.077Z,8.25
2023-02-27T07:21:15.774Z,8.82
2023-02-27T07:22:18.447Z,8.13
2023-02-27T07:23:21.981Z,8.12
2023-02-27T07:24:24.390Z,9.55
2023-02-27T07:25:26.759Z,7.98
2023-02-27T07:26:29.431Z,8.77
2023-02-27T07:27:32.422Z,8.43
2023-02-27T07:28:35.072Z,9.18
2023-02-27T07:29:37.505Z,9.43
2023-02-27T07:30:40.019Z,10.17
2023-02-27T07:31:42.394Z,9.48
2023-02-27T07:32:44.750Z,10.08
2023-02-27T07:33:47.429Z,10.33
2023-02-27T07:34:49.885Z,10.75
2023-02-27T07:35:52.396Z,14.08
2023-02-27T07:36:54.911Z,14.20
2023-02-27T07:37:59.411Z,11.02
2023-02-27T07:39:03.791Z,8.67
2023-02-27T07:40:07.697Z,7.02
2023-02-27T07:41:21.277Z,8.48
2023-02-27T07:42:32.442Z,10.75
2023-02-27T07:43:34.858Z,11.37
2023-02-27T07:44:37.605Z,10.22
2023-02-27T07:45:40.088Z,8.23
2023-02-27T07:46:42.459Z,8.23
2023-02-27T07:47:45.654Z,8.43
2023-02-27T07:48:48.353Z,8.30
2023-02-27T07:49:50.965Z,9.58
2023-02-27T07:50:53.342Z,10.80
2023-02-27T07:51:56.357Z,8.58
2023-02-27T07:52:59.955Z,7.83
2023-02-27T07:54:03.020Z,9.37
2023-02-27T07:55:08.723Z,8.88
2023-02-27T07:56:11.098Z,9.03
2023-02-27T07:57:13.561Z,9.27
2023-02-27T07:58:15.978Z,8.48
2023-02-27T07:59:18.340Z,8.52
2023-02-27T08:00:20.897Z,8.88
2023-02-27T08:01:23.227Z,9.02
2023-02-27T08:02:25.818Z,10.58
2023-02-27T08:03:28.228Z,9.68
2023-02-27T08:04:30.841Z,12.15
2023-02-27T08:05:33.355Z,13.38
2023-02-27T08:06:35.776Z,9.35
2023-02-27T08:07:38.193Z,8.72
2023-02-27T08:08:40.661Z,7.97
2023-02-27T08:09:43.011Z,7.37
2023-02-27T08:10:45.631Z,8.18
2023-02-27T08:11:49.212Z,9.00
2023-02-27T08:12:51.685Z,8.67
2023-02-27T08:14:02.038Z,7.42
2023-02-27T08:15:06.405Z,9.38
2023-02-27T08:16:08.795Z,9.88
2023-02-27T08:17:11.673Z,7.97
2023-02-27T08:18:16.264Z,8.90
2023-02-27T08:19:18.793Z,8.80
2023-02-27T08:20:24.402Z,8.05
2023-02-27T08:21:27.374Z,8.23
2023-02-27T08:22:30.149Z,8.60
2023-02-27T08:23:34.645Z,10.15
2023-02-27T08:24:37.173Z,7.53
2023-02-27T08:25:39.588Z,6.43
2023-02-27T08:26:42.106Z,7.57
2023-02-27T08:27:44.720Z,7.87
2023-02-27T08:28:47.347Z,7.68
2023-02-27T08:29:52.264Z,7.85
2023-02-27T08:30:55.324Z,8.05
2023-02-27T08:31:58.034Z,7.33
2023-02-27T08:33:00.679Z,6.45
2023-02-27T08:34:09.389Z,6.38
2023-02-27T08:35:12.914Z,7.13
2023-02-27T08:36:15.493Z,7.05
2023-02-27T08:37:18.043Z,7.10
2023-02-27T08:38:21.086Z,7.60
2023-02-27T08:39:24.332Z,7.67
2023-02-27T08:40:29.430Z,7.75
2023-02-27T08:41:34.388Z,7.38
2023-02-27T08:42:39.844Z,7.12
2023-02-27T08:43:44.600Z,7.07
2023-02-27T08:44:50.725Z,7.42
2023-02-27T08:45:53.180Z,7.60
2023-02-27T08:46:55.576Z,7.18
2023-02-27T08:47:58.228Z,7.53
2023-02-27T08:49:00.595Z,7.48
2023-02-27T08:50:03.119Z,7.23
2023-02-27T08:51:05.610Z,8.42
2023-02-27T08:52:09.896Z,10.08
2023-02-27T08:53:12.686Z,8.68
2023-02-27T08:54:15.058Z,7.58
2023-02-27T08:55:17.476Z,7.12
2023-02-27T08:56:19.827Z,7.13
2023-02-27T08:57:22.197Z,6.47
2023-02-27T08:58:24.524Z,6.28
2023-02-27T08:59:26.933Z,6.33
2023-02-27T09:00:29.828Z,6.60
2023-02-27T09:01:34.742Z,6.92
2023-02-27T09:02:37.264Z,7.25
2023-02-27T09:03:39.706Z,8.25
2023-02-27T09:04:42.037Z,9.98
2023-02-27T09:05:44.443Z,11.47
2023-02-27T09:06:46.796Z,8.22
2023-02-27T09:07:49.386Z,7.98
2023-02-27T09:08:51.841Z,7.67
2023-02-27T09:09:54.329Z,7.53
2023-02-27T09:10:57.372Z,8.17
2023-02-27T09:11:59.763Z,6.92
2023-02-27T09:13:02.327Z,6.65
2023-02-27T09:14:04.817Z,7.30
2023-02-27T09:15:07.956Z,6.30
2023-02-27T09:16:10.427Z,5.88
2023-02-27T09:17:12.837Z,6.05
2023-02-27T09:18:15.473Z,7.10
2023-02-27T09:19:17.874Z,6.65
2023-02-27T09:20:20.305Z,11.02
2023-02-27T09:21:24.801Z,8.97
2023-02-27T09:22:27.281Z,7.58
2023-02-27T09:23:29.633Z,6.98
2023-02-27T09:24:32.066Z,6.57
2023-02-27T09:25:34.447Z,6.50
2023-02-27T09:26:45.606Z,6.92
2023-02-27T09:27:48.200Z,6.92
2023-02-27T09:28:50.926Z,7.15
2023-02-27T09:29:55.645Z,7.37
2023-02-27T09:31:02.360Z,9.00
2023-02-27T09:32:04.795Z,7.77
2023-02-27T09:33:07.209Z,7.15
2023-02-27T09:34:09.521Z,7.83
2023-02-27T09:35:11.860Z,9.13
2023-02-27T09:36:14.400Z,8.83
2023-02-27T09:37:19.301Z,6.90
2023-02-27T09:38:21.709Z,7.08
2023-02-27T09:39:24.105Z,8.02
2023-02-27T09:40:29.495Z,8.13
2023-02-27T09:41:34.782Z,7.47
2023-02-27T09:42:45.555Z,7.75
2023-02-27T09:43:50.305Z,7.68
2023-02-27T09:44:54.604Z,6.77
2023-02-27T09:45:58.535Z,7.25
2023-02-27T09:47:01.094Z,6.38
2023-02-27T09:48:08.890Z,6.87
2023-02-27T09:49:16.677Z,6.45
2023-02-27T09:50:30.593Z,6.25
2023-02-27T09:51:33.650Z,6.18
2023-02-27T09:52:37.795Z,6.30
2023-02-27T09:53:43.177Z,6.77
2023-02-27T09:54:45.842Z,6.35
2023-02-27T09:55:48.893Z,5.97
2023-02-27T09:56:57.736Z,6.32
2023-02-27T09:58:07.902Z,6.03
2023-02-27T09:59:19.788Z,6.87
2023-02-27T10:00:38.320Z,7.17
2023-02-27T10:01:55.623Z,7.48
2023-02-27T10:03:45.696Z,7.32
2023-02-27T10:05:01.589Z,6.72
2023-02-27T10:06:45.699Z,6.32
2023-02-27T10:07:56.948Z,6.13
2023-02-27T10:09:19.087Z,6.40
2023-02-27T10:10:24.080Z,6.32
2023-02-27T10:11:37.116Z,8.12
2023-02-27T10:12:51.438Z,9.35
2023-02-27T10:14:00.252Z,7.52
2023-02-27T10:15:19.041Z,8.08
2023-02-27T10:16:23.014Z,7.82
2023-02-27T10:17:34.005Z,7.07
2023-02-27T10:18:54.834Z,7.27
2023-02-27T10:20:01.269Z,6.97
2023-02-27T10:21:07.879Z,7.50
2023-02-27T10:22:21.854Z,7.55
2023-02-27T10:23:36.597Z,7.50
2023-02-27T10:24:51.225Z,6.90
2023-02-27T10:25:55.117Z,7.05
2023-02-27T10:27:00.159Z,7.63
2023-02-27T10:28:12.868Z,7.82
2023-02-27T10:29:28.309Z,7.85
2023-02-27T10:30:32.973Z,7.22
2023-02-27T10:31:37.240Z,6.73
2023-02-27T10:32:40.821Z,7.43
2023-02-27T10:33:44.296Z,6.68
2023-02-27T10:34:55.097Z,6.80
2023-02-27T10:35:58.008Z,7.05
2023-02-27T10:37:03.537Z,6.60
2023-02-27T10:38:12.951Z,6.62
2023-02-27T10:39:20.807Z,6.72
2023-02-27T10:40:25.556Z,6.57
2023-02-27T10:42:05.921Z,6.42
2023-02-27T10:44:01.504Z,6.45
2023-02-27T10:45:05.428Z,6.52
2023-02-27T10:46:14.940Z,6.33
2023-02-27T10:47:17.341Z,6.67
2023-02-27T10:48:20.350Z,6.48
2023-02-27T10:49:22.873Z,7.00
2023-02-27T10:51:07.240Z,9.90
2023-02-27T10:52:12.590Z,7.73
2023-02-27T10:53:28.032Z,7.35
2023-02-27T10:54:30.580Z,8.60
2023-02-27T10:55:36.227Z,9.25
2023-02-27T10:56:39.595Z,8.87
2023-02-27T10:57:43.269Z,7.60
2023-02-27T10:58:45.809Z,7.20
2023-02-27T10:59:54.299Z,6.83
2023-02-27T11:00:59.380Z,7.15
2023-02-27T11:02:04.558Z,6.53
2023-02-27T11:03:07.848Z,6.13
2023-02-27T11:04:13.166Z,6.50
2023-02-27T11:05:31.400Z,6.72
2023-02-27T11:06:33.901Z,6.17
2023-02-27T11:07:39.921Z,6.90
2023-02-27T11:08:43.777Z,6.83
2023-02-27T11:10:18.984Z,6.32
2023-02-27T11:11:31.213Z,5.93
2023-02-27T11:12:35.286Z,6.32
2023-02-27T11:13:45.310Z,6.63
2023-02-27T11:14:52.042Z,6.35
2023-02-27T11:16:16.599Z,7.10
2023-02-27T11:17:34.217Z,7.17
2023-02-27T11:18:39.663Z,6.72
2023-02-27T11:19:42.050Z,6.55
2023-02-27T11:20:47.294Z,6.67
2023-02-27T11:22:12.542Z,6.90
2023-02-27T11:23:19.509Z,7.67
2023-02-27T11:24:21.969Z,7.13
2023-02-27T11:25:26.347Z,6.78
2023-02-27T11:26:33.282Z,6.80
2023-02-27T11:27:35.709Z,6.28
2023-02-27T11:31:22.873Z,6.07
2023-02-27T11:32:32.383Z,6.22
2023-02-27T11:33:49.698Z,6.25
2023-02-27T11:34:52.916Z,6.25
2023-02-27T11:35:58.567Z,6.02
2023-02-27T11:37:07.821Z,6.15
2023-02-27T11:38:23.524Z,5.77
2023-02-27T11:39:39.299Z,6.63
2023-02-27T11:40:50.517Z,6.13
2023-02-27T11:41:54.684Z,5.68
2023-02-27T11:43:02.380Z,5.87
2023-02-27T11:44:05.681Z,6.78
2023-02-27T11:46:04.509Z,6.35
2023-02-27T11:46:51.684Z,6.07
2023-02-27T11:48:01.466Z,6.35
2023-02-27T11:49:47.497Z,6.37
2023-02-27T11:51:18.984Z,6.28
2023-02-27T11:52:49.306Z,6.50
2023-02-27T11:54:13.150Z,6.00
2023-02-27T11:55:20.471Z,6.25
2023-02-27T11:56:36.159Z,6.50
2023-02-27T11:57:42.585Z,6.78
2023-02-27T11:59:11.110Z,6.62
2023-02-27T12:00:26.709Z,6.38
2023-02-27T12:01:36.586Z,6.97
2023-02-27T12:03:04.611Z,7.37
2023-02-27T12:04:20.970Z,6.45
2023-02-27T12:05:32.298Z,6.57
2023-02-27T12:06:47.246Z,6.08
2023-02-27T12:08:31.010Z,6.55
2023-02-27T12:09:44.907Z,6.13
2023-02-27T12:11:07.779Z,6.32
2023-02-27T12:12:24.066Z,7.00
2023-02-27T12:13:30.423Z,6.60
2023-02-27T12:15:06.742Z,6.67
2023-02-27T12:16:33.249Z,6.97
2023-02-27T12:17:55.969Z,6.32
2023-02-27T12:19:06.112Z,6.92
2023-02-27T12:20:28.976Z,6.93
2023-02-27T12:21:37.081Z,7.12
2023-02-27T12:22:45.892Z,7.43
2023-02-27T12:23:55.872Z,7.23
2023-02-27T12:25:08.241Z,6.60
2023-02-27T12:26:23.026Z,6.92
2023-02-27T12:27:34.216Z,6.88
2023-02-27T12:29:02.382Z,15.02
2023-02-27T12:30:33.487Z,22.83
2023-02-27T12:31:35.975Z,8.93
2023-02-27T12:32:38.487Z,7.87
2023-02-27T12:34:53.422Z,6.52
2023-02-27T12:38:27.320Z,9.03
2023-02-27T12:39:56.433Z,8.92
2023-02-27T12:41:23.488Z,10.58
2023-02-27T12:42:38.089Z,9.43
2023-02-27T12:44:18.206Z,8.30
2023-02-27T12:45:48.007Z,7.30
2023-02-27T12:47:02.439Z,7.18
2023-02-27T12:48:13.832Z,6.85
2023-02-27T12:49:19.156Z,7.52
2023-02-27T12:50:26.344Z,11.32
2023-02-27T12:51:39.843Z,10.95
2023-02-27T12:53:00.916Z,7.48
2023-02-27T12:54:27.340Z,8.48
2023-02-27T12:55:39.194Z,7.57
2023-02-27T12:56:44.453Z,6.98
2023-02-27T12:57:46.830Z,6.68
2023-02-27T12:58:56.113Z,7.05
2023-02-27T13:00:13.923Z,6.78
2023-02-27T13:01:36.206Z,7.05
2023-02-27T13:02:57.662Z,6.95
2023-02-27T13:04:07.581Z,6.98
2023-02-27T13:05:13.171Z,8.43
2023-02-27T13:06:30.059Z,7.77
2023-02-27T13:08:00.318Z,7.88
2023-02-27T13:09:12.291Z,7.30
2023-02-27T13:10:34.266Z,7.45
2023-02-27T13:11:40.265Z,7.68
2023-02-27T13:12:44.791Z,7.50
2023-02-27T13:13:52.323Z,7.87
2023-02-27T13:15:04.790Z,7.57
2023-02-27T13:16:14.311Z,7.38
2023-02-27T13:17:30.538Z,7.30
2023-02-27T13:21:41.661Z,7.22
2023-02-27T13:26:11.387Z,7.30
2023-02-27T13:27:25.610Z,7.22
2023-02-27T13:28:33.325Z,6.63
2023-02-27T13:29:48.095Z,6.57
2023-02-27T13:31:09.351Z,6.45
2023-02-27T13:32:17.984Z,7.12
2023-02-27T13:33:38.752Z,7.60
2023-02-27T13:35:03.097Z,7.23
2023-02-27T13:36:11.398Z,6.57
2023-02-27T13:37:13.785Z,6.35
2023-02-27T13:38:34.580Z,6.28
2023-02-27T13:39:46.009Z,6.25
2023-02-27T13:40:48.534Z,6.45
2023-02-27T13:41:51.054Z,6.37
2023-02-27T13:42:56.945Z,6.48
2023-02-27T13:44:01.407Z,6.18
2023-02-27T13:45:06.423Z,7.15
2023-02-27T13:46:26.135Z,7.50
2023-02-27T13:47:30.996Z,6.67
2023-02-27T13:48:40.943Z,6.53
2023-02-27T13:49:43.847Z,6.48
2023-02-27T13:50:50.380Z,7.03
2023-02-27T13:51:54.602Z,6.50
2023-02-27T13:52:56.898Z,7.07
2023-02-27T13:54:13.064Z,7.13
2023-02-27T13:55:27.280Z,7.18
2023-02-27T13:56:29.721Z,6.78
2023-02-27T13:57:33.810Z,6.55
2023-02-27T13:58:43.795Z,6.62
2023-02-27T13:59:53.446Z,6.67
2023-02-27T14:00:59.560Z,7.53
2023-02-27T14:02:10.767Z,7.02
2023-02-27T14:03:21.740Z,6.40
2023-02-27T14:04:27.424Z,6.48
2023-02-27T14:05:42.437Z,7.05
2023-02-27T14:06:47.775Z,6.67
2023-02-27T14:08:00.281Z,6.78
2023-02-27T14:09:14.293Z,7.53
2023-02-27T14:10:24.186Z,8.70
2023-02-27T14:11:34.453Z,11.05
2023-02-27T14:12:45.404Z,11.85
2023-02-27T14:13:51.209Z,12.68
2023-02-27T14:14:53.935Z,9.35
2023-02-27T14:15:58.134Z,7.85
2023-02-27T14:17:01.697Z,6.60
2023-02-27T14:18:15.974Z,6.80
2023-02-27T14:19:22.543Z,6.85
2023-02-27T14:20:27.433Z,6.77
2023-02-27T14:21:51.364Z,6.33
2023-02-27T14:23:24.146Z,6.65
2023-02-27T14:24:44.785Z,6.73
2023-02-27T14:25:54.210Z,6.78
2023-02-27T14:26:57.111Z,6.93
2023-02-27T14:28:00.673Z,6.87
2023-02-27T14:29:03.600Z,6.38
2023-02-27T14:30:10.151Z,6.83
2023-02-27T14:31:35.118Z,6.98
2023-02-27T14:32:45.561Z,6.50
2023-02-27T14:33:54.315Z,6.25
2023-02-27T14:35:19.537Z,6.35
2023-02-27T14:36:25.074Z,6.50
2023-02-27T14:37:28.420Z,6.75
2023-02-27T14:38:33.907Z,7.10
2023-02-27T14:39:37.664Z,7.28
2023-02-27T14:41:18.088Z,7.32
2023-02-27T14:42:39.802Z,6.82
2023-02-27T14:43:55.343Z,6.42
2023-02-27T14:44:57.800Z,6.85
2023-02-27T14:46:32.287Z,6.37
2023-02-27T14:47:36.814Z,6.38
2023-02-27T14:48:40.209Z,6.90
2023-02-27T14:49:43.119Z,6.68
2023-02-27T14:50:45.516Z,6.42
2023-02-27T14:51:48.321Z,6.47
2023-02-27T14:52:50.734Z,6.43
2023-02-27T14:54:08.040Z,6.12
2023-02-27T14:55:36.889Z,6.15
2023-02-27T14:56:39.458Z,6.05
2023-02-27T14:57:59.128Z,5.93
2023-02-27T14:59:04.591Z,6.45
2023-02-27T15:00:08.624Z,7.02
2023-02-27T15:01:11.202Z,6.55
2023-02-27T15:02:21.988Z,6.65
2023-02-27T15:03:28.304Z,6.58
2023-02-27T15:04:32.949Z,7.37
2023-02-27T15:05:35.566Z,6.98
2023-02-27T15:06:43.829Z,8.18
2023-02-27T15:07:47.699Z,8.48
2023-02-27T15:08:52.851Z,7.22
2023-02-27T15:09:58.477Z,7.20
2023-02-27T15:11:02.518Z,6.77
2023-02-27T15:12:05.204Z,7.18
2023-02-27T15:13:15.462Z,6.57
2023-02-27T15:14:35.110Z,6.92
2023-02-27T15:15:37.596Z,6.77
2023-02-27T15:16:40.735Z,7.02
2023-02-27T15:17:48.603Z,6.80
2023-02-27T15:18:53.568Z,7.18
2023-02-27T15:19:58.939Z,6.77